Terminal Aerodrome Forecast
Issued by NWS Brownsville, TX

Home | Current Version | Previous Version | Text Only | Print | Product List | Glossary On
Versions: 1 2 3 4 5 6 7 8 9 10 11 12 13 14 15 16 17 18 19 20 21 22 23 24 25 26 27
000
FTUS44 KBRO 281151 AAA
TAFBRO
TAF AMD
KBRO 281151Z 2812/2912 33007KT P6SM VCSH SCT007 SCT025 OVC050
      TEMPO 2812/2815 5SM SHRA BKN007
     FM281500 36007KT P6SM BKN050
      TEMPO 2815/2818 -SHRA
     FM281800 02008KT P6SM BKN050
     FM290100 03003KT P6SM FEW025 BKN080=

USA.gov is the U.S. government's official web portal to all federal, state and local government web resources and services.